createdAt,value
2022-08-05T00:01:35.620Z,99865.75
2022-08-05T00:04:16.536Z,99868.78
2022-08-05T00:06:44.660Z,99864.59
2022-08-05T00:09:19.723Z,99860.44
2022-08-05T00:11:49.313Z,99860.44
2022-08-05T00:14:27.579Z,99867.88
2022-08-05T00:16:57.766Z,99864.78
2022-08-05T00:19:33.374Z,99865.50
2022-08-05T00:22:02.435Z,99867.16
2022-08-05T00:24:31.916Z,99855.59
2022-08-05T00:27:00.497Z,99869.72
2022-08-05T00:29:37.776Z,99870.06
2022-08-05T00:32:13.013Z,99865.38
2022-08-05T00:35:03.438Z,99861.00
2022-08-05T00:37:35.519Z,99864.19
2022-08-05T00:40:27.315Z,99857.28
2022-08-05T00:42:57.650Z,99861.00
2022-08-05T00:45:38.015Z,99860.50
2022-08-05T00:48:08.138Z,99859.78
2022-08-05T00:50:37.717Z,99855.06
2022-08-05T00:53:09.760Z,99861.44
2022-08-05T00:55:55.347Z,99854.28
2022-08-05T00:58:27.205Z,99848.53
2022-08-05T01:00:55.622Z,99854.72
2022-08-05T01:03:24.390Z,99849.63
2022-08-05T01:05:59.345Z,99850.94
2022-08-05T01:08:42.111Z,99847.09
2022-08-05T01:11:22.370Z,99848.25
2022-08-05T01:14:08.432Z,99853.22
2022-08-05T01:16:44.279Z,99849.59
2022-08-05T01:19:36.566Z,99851.94
2022-08-05T01:22:27.919Z,99846.72
2022-08-05T01:25:17.473Z,99848.00
2022-08-05T01:28:01.041Z,99852.16
2022-08-05T01:30:34.080Z,99849.78
2022-08-05T01:33:08.376Z,99845.38
2022-08-05T01:35:50.780Z,99849.03
2022-08-05T01:38:27.101Z,99853.56
2022-08-05T01:41:01.231Z,99856.03
2022-08-05T01:43:33.229Z,99854.13
2022-08-05T01:46:07.317Z,99857.00
2022-08-05T01:48:49.647Z,99856.78
2022-08-05T01:51:19.388Z,99857.94
2022-08-05T01:53:58.004Z,99855.91
2022-08-05T01:58:12.153Z,99853.22
2022-08-05T01:59:24.453Z,99855.50
2022-08-05T02:01:57.643Z,99853.00
2022-08-05T02:04:30.008Z,99854.16
2022-08-05T02:06:59.990Z,99849.59
2022-08-05T02:09:31.941Z,99851.41
2022-08-05T02:12:06.312Z,99850.38
2022-08-05T02:14:47.825Z,99855.47
2022-08-05T02:18:28.292Z,99853.25
2022-08-05T02:20:20.523Z,99856.78
2022-08-05T02:22:56.684Z,99851.50
2022-08-05T02:25:33.415Z,99850.22
2022-08-05T02:28:18.975Z,99853.13
2022-08-05T02:31:01.935Z,99852.06
2022-08-05T02:33:38.916Z,99847.56
2022-08-05T02:36:13.721Z,99846.09
2022-08-05T02:38:52.733Z,99845.00
2022-08-05T02:41:23.362Z,99840.53
2022-08-05T02:44:06.200Z,99841.94
2022-08-05T02:46:58.969Z,99847.94
2022-08-05T02:49:36.905Z,99843.03
2022-08-05T02:52:09.283Z,99853.69
2022-08-05T02:54:41.171Z,99841.13
2022-08-05T02:58:09.459Z,99842.72
2022-08-05T03:00:02.806Z,99843.03
2022-08-05T03:02:38.016Z,99835.78
2022-08-05T03:05:10.251Z,99838.28
2022-08-05T03:08:01.930Z,99837.06
2022-08-05T03:10:29.013Z,99832.34
2022-08-05T03:15:24.560Z,99831.53
2022-08-05T03:17:57.608Z,99826.19
2022-08-05T03:20:26.604Z,99826.06
2022-08-05T03:22:57.124Z,99822.84
2022-08-05T03:25:33.904Z,99816.09
2022-08-05T03:28:18.716Z,99821.75
2022-08-05T03:30:47.895Z,99818.94
2022-08-05T03:33:17.900Z,99824.31
2022-08-05T03:35:46.807Z,99820.94
2022-08-05T03:38:15.599Z,99831.94
2022-08-05T03:40:45.332Z,99817.56
2022-08-05T03:44:08.201Z,99820.34
2022-08-05T03:46:05.293Z,99820.53
2022-08-05T03:48:38.066Z,99824.59
2022-08-05T03:52:50.354Z,99826.06
2022-08-05T03:55:50.981Z,99823.81
2022-08-05T03:56:58.978Z,99821.94
2022-08-05T03:59:47.611Z,99816.97
2022-08-05T04:02:38.934Z,99824.88
2022-08-05T04:05:13.751Z,99824.28
2022-08-05T04:07:58.103Z,99819.44
2022-08-05T04:10:31.993Z,99823.41
2022-08-05T04:13:06.505Z,99824.38
2022-08-05T04:15:36.056Z,99819.16
2022-08-05T04:18:06.682Z,99810.72
2022-08-05T04:20:37.303Z,99814.53
2022-08-05T04:23:05.726Z,99812.50
2022-08-05T04:25:57.853Z,99810.16
2022-08-05T04:28:31.715Z,99802.31
2022-08-05T04:31:01.034Z,99803.47
2022-08-05T04:33:54.811Z,99801.81
2022-08-05T04:36:46.089Z,99800.91
2022-08-05T04:39:08.886Z,99808.22
2022-08-05T04:41:38.718Z,99800.78
2022-08-05T04:44:09.056Z,99804.41
2022-08-05T04:46:38.116Z,99807.41
2022-08-05T04:49:12.315Z,99805.13
2022-08-05T04:51:44.513Z,99802.44
2022-08-05T04:54:14.872Z,99808.81
2022-08-05T04:56:43.634Z,99808.56
2022-08-05T04:59:21.755Z,99803.28
2022-08-05T05:02:35.231Z,99806.22
2022-08-05T05:04:43.861Z,99798.84
2022-08-05T05:07:17.716Z,99800.88
2022-08-05T05:09:46.111Z,99796.16
2022-08-05T05:12:14.906Z,99801.66
2022-08-05T05:14:50.698Z,99806.38
2022-08-05T05:17:23.891Z,99797.81
2022-08-05T05:19:56.461Z,99791.84
2022-08-05T05:22:26.999Z,99801.41
2022-08-05T05:24:57.351Z,99797.34
2022-08-05T05:27:44.309Z,99805.19
2022-08-05T05:30:15.682Z,99788.94
2022-08-05T05:33:00.735Z,99795.69
2022-08-05T05:35:37.599Z,99794.63
2022-08-05T05:38:09.388Z,99785.13
2022-08-05T05:40:49.730Z,99790.69
2022-08-05T05:43:27.472Z,99785.59
2022-08-05T05:46:13.785Z,99795.16
2022-08-05T05:48:44.693Z,99791.28
2022-08-05T05:51:20.202Z,99792.03
2022-08-05T05:53:58.042Z,99784.66
2022-08-05T05:56:32.182Z,99782.97
2022-08-05T05:59:05.283Z,99777.66
2022-08-05T06:01:37.426Z,99789.69
2022-08-05T06:04:08.302Z,99785.81
2022-08-05T06:06:41.853Z,99788.50
2022-08-05T06:09:17.322Z,99784.66
2022-08-05T06:12:01.658Z,99784.94
2022-08-05T06:14:31.106Z,99791.91
2022-08-05T06:17:02.227Z,99795.00
2022-08-05T06:19:56.637Z,99798.97
2022-08-05T06:22:30.487Z,99799.47
2022-08-05T06:25:25.118Z,99797.25
2022-08-05T06:28:10.783Z,99795.06
2022-08-05T06:30:40.196Z,99788.44
2022-08-05T06:33:10.032Z,99793.09
2022-08-05T06:36:07.318Z,99786.16
2022-08-05T06:38:36.512Z,99791.28
2022-08-05T06:41:07.863Z,99785.44
2022-08-05T06:43:58.072Z,99795.22
2022-08-05T06:46:30.104Z,99795.50
2022-08-05T06:49:00.789Z,99791.69
2022-08-05T06:51:30.891Z,99794.97
2022-08-05T06:54:00.141Z,99789.41
2022-08-05T06:56:34.964Z,99788.19
2022-08-05T06:59:03.788Z,99794.38
2022-08-05T07:01:36.964Z,99786.91
2022-08-05T07:04:05.382Z,99791.13
2022-08-05T07:06:33.464Z,99794.03
2022-08-05T07:09:05.897Z,99797.47
2022-08-05T07:11:37.063Z,99793.13
2022-08-05T07:14:28.821Z,99795.56
2022-08-05T07:18:01.493Z,99791.97
2022-08-05T07:22:38.708Z,99789.72
2022-08-05T07:25:22.923Z,99789.41
2022-08-05T07:28:03.852Z,99786.81
2022-08-05T07:30:39.015Z,99783.00
2022-08-05T07:33:15.610Z,99774.56
2022-08-05T07:36:02.373Z,99786.72
2022-08-05T07:38:35.387Z,99790.56
2022-08-05T07:41:34.959Z,99784.47
2022-08-05T07:44:04.865Z,99781.78
2022-08-05T07:46:34.602Z,99790.69
2022-08-05T07:49:07.749Z,99785.81
2022-08-05T07:51:40.896Z,99782.75
2022-08-05T07:54:18.615Z,99781.13
2022-08-05T07:57:02.477Z,99789.78
2022-08-05T07:59:40.167Z,99785.97
2022-08-05T08:02:16.660Z,99788.50
2022-08-05T08:04:46.801Z,99784.28
2022-08-05T08:07:15.550Z,99785.00
2022-08-05T08:09:43.905Z,99787.97
2022-08-05T08:12:37.491Z,99791.38
2022-08-05T08:15:04.298Z,99780.75
2022-08-05T08:17:33.284Z,99784.31
2022-08-05T08:20:22.499Z,99781.00
2022-08-05T08:22:54.239Z,99773.34
2022-08-05T08:25:26.861Z,99779.25
2022-08-05T08:28:18.268Z,99775.63
2022-08-05T08:30:49.952Z,99779.28
2022-08-05T08:33:19.179Z,99774.38
2022-08-05T08:35:52.993Z,99778.22
2022-08-05T08:38:32.282Z,99774.53
2022-08-05T08:41:09.385Z,99774.72
2022-08-05T08:45:20.172Z,99769.66
2022-08-05T08:46:30.999Z,99768.88
2022-08-05T08:49:09.597Z,99774.53
2022-08-05T08:52:05.786Z,99771.44
2022-08-05T08:54:38.888Z,99767.75
2022-08-05T08:57:11.853Z,99768.56
2022-08-05T08:59:47.021Z,99766.16
2022-08-05T09:02:20.192Z,99770.69
2022-08-05T09:05:15.974Z,99760.22
2022-08-05T09:07:39.870Z,99766.31
2022-08-05T09:10:27.749Z,99760.44
2022-08-05T09:13:04.966Z,99753.31
2022-08-05T09:15:37.085Z,99753.44
2022-08-05T09:18:09.970Z,99754.78
2022-08-05T09:20:44.534Z,99761.31
2022-08-05T09:23:19.873Z,99753.06
2022-08-05T09:26:00.858Z,99745.72
2022-08-05T09:28:34.307Z,99750.00
2022-08-05T09:32:38.726Z,99739.19
2022-08-05T09:33:58.773Z,99736.38
2022-08-05T09:36:45.636Z,99730.53
2022-08-05T09:39:39.368Z,99713.38
2022-08-05T09:42:17.459Z,99726.78
2022-08-05T09:44:56.819Z,99726.72
2022-08-05T09:47:48.379Z,99736.25
2022-08-05T09:50:38.670Z,99725.72
2022-08-05T09:53:09.097Z,99725.28
2022-08-05T09:55:57.918Z,99717.31
2022-08-05T09:58:29.323Z,99723.91
2022-08-05T10:01:01.755Z,99710.66
2022-08-05T10:03:59.557Z,99716.19
2022-08-05T10:06:31.091Z,99712.72
2022-08-05T10:09:27.314Z,99709.47
2022-08-05T10:11:56.287Z,99710.25
2022-08-05T10:14:30.293Z,99712.56
2022-08-05T10:17:37.840Z,99702.03
2022-08-05T10:20:10.104Z,99693.00
2022-08-05T10:22:43.191Z,99689.69
2022-08-05T10:25:20.335Z,99699.94
2022-08-05T10:28:12.887Z,99695.13
2022-08-05T10:32:49.350Z,99688.28
2022-08-05T10:33:28.896Z,99688.38
2022-08-05T10:35:59.781Z,99685.81
2022-08-05T10:38:33.293Z,99680.94
2022-08-05T10:41:12.358Z,99684.25
2022-08-05T10:43:50.381Z,99679.53
2022-08-05T10:46:23.777Z,99645.09
2022-08-05T10:49:02.754Z,99674.13
2022-08-05T10:51:57.721Z,99666.56
2022-08-05T10:54:56.335Z,99668.34
2022-08-05T10:57:30.833Z,99664.63
2022-08-05T11:00:16.394Z,99662.69
2022-08-05T11:03:24.777Z,99674.84
2022-08-05T11:06:06.219Z,99660.53
2022-08-05T11:09:17.336Z,99660.59
2022-08-05T11:11:53.435Z,99655.63
2022-08-05T11:14:49.503Z,99650.44
2022-08-05T11:18:09.480Z,99651.56
2022-08-05T11:20:41.835Z,99645.22
2022-08-05T11:24:04.750Z,99652.19
2022-08-05T11:26:32.619Z,99643.34
2022-08-05T11:29:12.102Z,99640.53
2022-08-05T11:31:58.023Z,99652.44
2022-08-05T11:34:50.737Z,99641.31
2022-08-05T11:38:29.936Z,99643.03
2022-08-05T11:41:03.489Z,99638.03
2022-08-05T11:44:04.574Z,99633.47
2022-08-05T11:46:37.477Z,99634.50
2022-08-05T11:49:08.005Z,99645.13
2022-08-05T11:51:44.115Z,99630.19
2022-08-05T11:54:33.600Z,99638.69
2022-08-05T11:57:07.972Z,99642.91
2022-08-05T11:59:52.441Z,99646.59
2022-08-05T12:02:30.952Z,99630.50
2022-08-05T12:05:06.549Z,99645.50
2022-08-05T12:08:07.374Z,99637.34
2022-08-05T12:10:38.660Z,99626.44
2022-08-05T12:13:16.565Z,99622.84
2022-08-05T12:15:45.368Z,99622.75
2022-08-05T12:18:24.215Z,99628.22
2022-08-05T12:20:52.776Z,99629.63
2022-08-05T12:23:20.932Z,99623.06
2022-08-05T12:25:53.827Z,99620.28
2022-08-05T12:28:36.695Z,99622.72
2022-08-05T12:31:06.221Z,99626.63
2022-08-05T12:33:38.490Z,99623.56
2022-08-05T12:36:09.274Z,99618.09
2022-08-05T12:38:39.470Z,99625.78
2022-08-05T12:43:59.917Z,99610.66
2022-08-05T12:46:31.415Z,99611.28
2022-08-05T12:49:11.988Z,99613.22
2022-08-05T12:52:13.619Z,99600.75
2022-08-05T12:54:39.865Z,99607.91
2022-08-05T12:57:13.011Z,99604.75
